Ellezelles, Belgium
Current Conditions -  °F | °C
As of 12:43 PM on Monday 20 Oct 2014 (Local Time) from EBCV Reporting Station
Overcast Overcast  
Wind Chill: 59°   Ceiling: 4100
Heat Index: 59°   Visibility: 6mi
Dew Point: 54°   Wind: 10mph
Humidity: 82%   Direction: 250°WSW
Pressure: 30.09"   Gusts: NA
Location:  50.74°N, 3.68°E
Report Text: EBCV 201043Z AUTO 25009KT 9999 FEW020/// OVC041/// 15/12 Q1019 BLU
Loading
Personal Weather Stations






























Interactive Weather Map
Tropical Storm Tracking
New forecast layout! Learn more

10-Day Weather Forecast

Advertisements
Track Severe Weather on mobile